Time;durP1;ratioP1;P1;durP2;ratioP2;P2;SDS_P1;SDS_P2;PMS_P1;PMS_P2;Temp;Humidity;BMP_temperature;BMP_pressure;BME280_temperature;BME280_humidity;BME280_pressure;Samples;Min_cycle;Max_cycle;Signal;HPM_P1;HPM_P2
2023/09/17 00:00:19;;;;;;;7.25;6.65;;;;;;;;;;5001061;28;21019;-59
2023/09/17 00:02:46;;;;;;;8.93;6.75;;;;;;;;;;5000232;28;20663;-60
2023/09/17 00:05:13;;;;;;;8.88;7.50;;;;;;;;;;5005060;28;20233;-59
2023/09/17 00:07:41;;;;;;;9.23;7.43;;;;;;;;;;5003911;28;20612;-59
2023/09/17 00:10:09;;;;;;;6.78;6.20;;;;;;;;;;5001729;28;20208;-59
2023/09/17 00:12:36;;;;;;;7.93;6.40;;;;;;;;;;5001643;28;20205;-59
2023/09/17 00:15:03;;;;;;;7.32;6.60;;;;;;;;;;4993830;28;20213;-59
2023/09/17 00:17:32;;;;;;;7.97;6.68;;;;;;;;;;4998176;28;20237;-59
2023/09/17 00:19:59;;;;;;;7.05;6.47;;;;;;;;;;5005255;28;20205;-59
2023/09/17 00:22:26;;;;;;;7.22;6.70;;;;;;;;;;5007168;28;20209;-59
2023/09/17 00:24:53;;;;;;;7.53;6.90;;;;;;;;;;5007098;28;20664;-59
2023/09/17 00:27:20;;;;;;;12.60;6.97;;;;;;;;;;5006761;28;20248;-59
2023/09/17 00:29:47;;;;;;;7.78;6.72;;;;;;;;;;5007242;28;20205;-59
2023/09/17 00:32:14;;;;;;;7.95;7.10;;;;;;;;;;4996741;28;20435;-59
2023/09/17 00:34:42;;;;;;;8.18;6.68;;;;;;;;;;5003964;28;20224;-59
2023/09/17 00:37:10;;;;;;;7.03;6.43;;;;;;;;;;5003276;28;20201;-59
2023/09/17 00:39:37;;;;;;;7.07;6.38;;;;;;;;;;5008923;28;20209;-59
2023/09/17 00:42:04;;;;;;;7.13;6.53;;;;;;;;;;5003051;28;20202;-59
2023/09/17 00:44:31;;;;;;;6.40;5.90;;;;;;;;;;5005400;28;20757;-59
2023/09/17 00:47:00;;;;;;;7.07;6.45;;;;;;;;;;5006333;28;20228;-59
2023/09/17 00:49:28;;;;;;;6.95;6.38;;;;;;;;;;5003256;28;20216;-59
2023/09/17 00:51:56;;;;;;;7.03;6.40;;;;;;;;;;5004920;28;20201;-59
2023/09/17 00:54:24;;;;;;;7.22;6.28;;;;;;;;;;5006239;28;20212;-59
2023/09/17 00:56:52;;;;;;;7.00;6.40;;;;;;;;;;5006450;28;20579;-59
2023/09/17 00:59:19;;;;;;;6.70;6.15;;;;;;;;;;5006935;28;20308;-59
2023/09/17 01:01:47;;;;;;;11.65;6.68;;;;;;;;;;5006327;28;20272;-59
2023/09/17 01:04:14;;;;;;;6.35;5.75;;;;;;;;;;5004887;28;20740;-59
2023/09/17 01:06:42;;;;;;;6.70;6.10;;;;;;;;;;5006867;28;20730;-59
2023/09/17 01:09:12;;;;;;;6.60;6.05;;;;;;;;;;5006761;28;20212;-59
2023/09/17 01:11:39;;;;;;;6.68;6.10;;;;;;;;;;5008928;28;20289;-59
2023/09/17 01:14:15;;;;;;;7.10;6.45;;;;;;;;;;5007177;28;20201;-59
2023/09/17 01:16:42;;;;;;;6.85;6.35;;;;;;;;;;5008685;28;20205;-60
2023/09/17 01:19:13;;;;;;;7.00;6.35;;;;;;;;;;5002279;28;21812;-62
2023/09/17 01:21:44;;;;;;;7.20;6.50;;;;;;;;;;5003118;28;20216;-59
2023/09/17 01:24:20;;;;;;;7.13;6.53;;;;;;;;;;5003189;28;20209;-59
2023/09/17 01:26:58;;;;;;;10.35;6.63;;;;;;;;;;5000874;28;20217;-59
2023/09/17 01:29:25;;;;;;;10.85;6.57;;;;;;;;;;5004570;28;20300;-59
2023/09/17 01:31:52;;;;;;;7.00;6.40;;;;;;;;;;5001962;28;20214;-59
2023/09/17 01:34:19;;;;;;;7.30;6.63;;;;;;;;;;5006530;28;20205;-59
2023/09/17 01:36:46;;;;;;;7.35;6.72;;;;;;;;;;5006087;28;20561;-59
2023/09/17 01:39:14;;;;;;;6.32;5.65;;;;;;;;;;5008251;28;20613;-59
2023/09/17 01:41:42;;;;;;;7.30;6.60;;;;;;;;;;5008512;28;20209;-59
2023/09/17 01:44:11;;;;;;;6.65;6.25;;;;;;;;;;5006538;28;20205;-59
2023/09/17 01:46:39;;;;;;;7.30;6.65;;;;;;;;;;5008029;28;20216;-59
2023/09/17 01:49:08;;;;;;;7.20;6.57;;;;;;;;;;5006256;28;20675;-59
2023/09/17 01:51:36;;;;;;;7.53;6.93;;;;;;;;;;5007704;28;20311;-59
2023/09/17 01:54:03;;;;;;;6.53;6.03;;;;;;;;;;5005333;28;20213;-59
2023/09/17 01:56:30;;;;;;;6.68;6.07;;;;;;;;;;5007918;28;20253;-59
2023/09/17 01:58:57;;;;;;;7.00;6.47;;;;;;;;;;5007950;28;20212;-60
2023/09/17 02:01:27;;;;;;;6.50;6.00;;;;;;;;;;5006969;28;20619;-59
2023/09/17 02:03:54;;;;;;;7.22;6.40;;;;;;;;;;5007801;28;20205;-59
2023/09/17 02:06:21;;;;;;;8.13;6.10;;;;;;;;;;5003983;28;20231;-59
2023/09/17 02:08:48;;;;;;;6.50;5.88;;;;;;;;;;5003077;28;20205;-59
2023/09/17 02:11:15;;;;;;;6.10;5.68;;;;;;;;;;4994561;28;20690;-59
2023/09/17 02:13:42;;;;;;;6.60;6.00;;;;;;;;;;5002720;28;20217;-59
2023/09/17 02:16:09;;;;;;;6.85;6.32;;;;;;;;;;5001433;28;20679;-59
2023/09/17 02:18:38;;;;;;;6.80;6.20;;;;;;;;;;5004263;28;20212;-59
2023/09/17 02:21:05;;;;;;;6.28;5.80;;;;;;;;;;5005617;28;20197;-58
2023/09/17 02:23:32;;;;;;;7.63;6.97;;;;;;;;;;5007354;28;20205;-59
2023/09/17 02:25:59;;;;;;;7.18;6.22;;;;;;;;;;5004643;28;20229;-59
2023/09/17 02:28:26;;;;;;;6.57;6.00;;;;;;;;;;5007250;28;20575;-59
2023/09/17 02:30:53;;;;;;;7.50;6.47;;;;;;;;;;4992222;28;20205;-58
2023/09/17 02:33:21;;;;;;;6.20;5.75;;;;;;;;;;4999110;28;20801;-60
2023/09/17 02:35:50;;;;;;;6.53;6.03;;;;;;;;;;5006649;28;20671;-60
2023/09/17 02:38:19;;;;;;;7.78;6.20;;;;;;;;;;4991866;28;20205;-59
2023/09/17 02:40:46;;;;;;;6.90;6.28;;;;;;;;;;5006778;28;20705;-59
2023/09/17 02:43:13;;;;;;;6.07;5.65;;;;;;;;;;5005344;28;20208;-59
2023/09/17 02:45:40;;;;;;;7.10;6.57;;;;;;;;;;5006936;28;20205;-59
2023/09/17 02:48:08;;;;;;;7.00;5.95;;;;;;;;;;5005236;28;20233;-59
2023/09/17 02:50:35;;;;;;;6.93;6.22;;;;;;;;;;5006873;28;20213;-59
2023/09/17 02:53:04;;;;;;;6.60;5.95;;;;;;;;;;5001413;28;20213;-59
2023/09/17 02:55:31;;;;;;;7.32;6.10;;;;;;;;;;5000647;28;20208;-60
2023/09/17 02:57:58;;;;;;;6.57;5.80;;;;;;;;;;5003244;28;20233;-60
2023/09/17 03:00:25;;;;;;;5.55;5.15;;;;;;;;;;4994580;28;20565;-59
2023/09/17 03:02:54;;;;;;;5.88;5.47;;;;;;;;;;4997936;28;20531;-59
2023/09/17 03:05:21;;;;;;;6.32;5.82;;;;;;;;;;4999925;28;20215;-59
2023/09/17 03:07:48;;;;;;;6.38;5.90;;;;;;;;;;5004971;28;20241;-59
2023/09/17 03:10:20;;;;;;;9.57;5.68;;;;;;;;;;5004361;28;20837;-59
2023/09/17 03:12:47;;;;;;;6.57;6.05;;;;;;;;;;5006685;28;20197;-60
2023/09/17 03:15:14;;;;;;;6.93;6.40;;;;;;;;;;5004435;28;20212;-59
2023/09/17 03:17:41;;;;;;;6.18;5.68;;;;;;;;;;4997400;28;20201;-59
2023/09/17 03:20:16;;;;;;;6.72;6.20;;;;;;;;;;5004317;28;20551;-59
2023/09/17 03:22:44;;;;;;;6.35;5.53;;;;;;;;;;5002917;28;20204;-60
2023/09/17 03:25:11;;;;;;;6.07;5.57;;;;;;;;;;5002362;28;20212;-59
2023/09/17 03:27:39;;;;;;;6.85;6.03;;;;;;;;;;5002709;28;20229;-59
2023/09/17 03:30:07;;;;;;;6.63;6.13;;;;;;;;;;5002164;28;20213;-59
2023/09/17 03:32:34;;;;;;;7.25;6.53;;;;;;;;;;5005142;28;20215;-58
2023/09/17 03:35:01;;;;;;;7.72;6.38;;;;;;;;;;5003845;28;20232;-59
2023/09/17 03:37:29;;;;;;;6.57;6.05;;;;;;;;;;5004089;28;20208;-59
2023/09/17 03:40:10;;;;;;;7.40;5.88;;;;;;;;;;5001647;28;20300;-59
2023/09/17 03:42:37;;;;;;;6.50;5.97;;;;;;;;;;5000237;28;20205;-59
2023/09/17 03:45:06;;;;;;;5.90;5.30;;;;;;;;;;5000453;28;20213;-60
2023/09/17 03:47:33;;;;;;;6.50;6.10;;;;;;;;;;4996919;28;20229;-59
2023/09/17 03:50:00;;;;;;;6.40;5.90;;;;;;;;;;4997012;28;20228;-59
2023/09/17 03:52:29;;;;;;;6.38;5.90;;;;;;;;;;5003832;28;20208;-59
2023/09/17 03:54:56;;;;;;;6.57;6.15;;;;;;;;;;5006421;28;20208;-59
2023/09/17 03:57:23;;;;;;;6.82;6.22;;;;;;;;;;5004196;28;20327;-59
2023/09/17 03:59:50;;;;;;;7.10;6.40;;;;;;;;;;5003737;28;20698;-59
2023/09/17 04:02:20;;;;;;;6.35;5.90;;;;;;;;;;5006426;28;20204;-59
2023/09/17 04:04:47;;;;;;;6.18;5.57;;;;;;;;;;5004290;28;20377;-59
2023/09/17 04:07:15;;;;;;;6.28;5.68;;;;;;;;;;5007724;28;20259;-59
2023/09/17 04:09:42;;;;;;;6.30;5.88;;;;;;;;;;5006320;28;20232;-59
2023/09/17 04:12:10;;;;;;;6.03;5.55;;;;;;;;;;5003220;28;20209;-58
2023/09/17 04:14:37;;;;;;;5.82;5.43;;;;;;;;;;5009522;28;20224;-59
2023/09/17 04:17:06;;;;;;;6.40;5.78;;;;;;;;;;5004866;28;20717;-59
2023/09/17 04:19:34;;;;;;;6.18;5.68;;;;;;;;;;5009677;28;20205;-60
2023/09/17 04:22:02;;;;;;;6.25;5.75;;;;;;;;;;5007624;28;20224;-59
2023/09/17 04:24:29;;;;;;;6.78;6.07;;;;;;;;;;5008019;28;20263;-59
2023/09/17 04:26:56;;;;;;;6.35;5.80;;;;;;;;;;5006614;28;20217;-59
2023/09/17 04:29:23;;;;;;;6.70;6.15;;;;;;;;;;5003609;28;20215;-61
2023/09/17 04:31:52;;;;;;;6.30;5.80;;;;;;;;;;5004225;28;20685;-62
2023/09/17 04:34:19;;;;;;;6.15;5.65;;;;;;;;;;4999641;28;20790;-58
2023/09/17 04:36:48;;;;;;;6.35;5.85;;;;;;;;;;5006289;28;20200;-61
2023/09/17 04:39:16;;;;;;;6.88;6.28;;;;;;;;;;5006446;28;20224;-61
2023/09/17 04:41:43;;;;;;;7.72;6.28;;;;;;;;;;5007648;28;20201;-61
2023/09/17 04:44:11;;;;;;;6.20;5.75;;;;;;;;;;5002635;28;20213;-61
2023/09/17 04:46:40;;;;;;;6.47;5.88;;;;;;;;;;5008342;28;20322;-58
2023/09/17 04:49:07;;;;;;;6.75;6.00;;;;;;;;;;5004045;28;20209;-59
2023/09/17 04:51:34;;;;;;;8.10;6.25;;;;;;;;;;5003868;28;20209;-58
2023/09/17 04:54:03;;;;;;;6.55;5.93;;;;;;;;;;5003007;28;20604;-59
2023/09/17 04:56:30;;;;;;;6.72;6.22;;;;;;;;;;5005601;28;20279;-61
2023/09/17 04:58:58;;;;;;;6.60;6.10;;;;;;;;;;5001213;28;20690;-61
2023/09/17 05:01:25;;;;;;;6.28;5.88;;;;;;;;;;5008554;28;20212;-61
2023/09/17 05:03:52;;;;;;;7.25;6.65;;;;;;;;;;5006284;28;20201;-61
2023/09/17 05:06:19;;;;;;;7.68;6.80;;;;;;;;;;5006786;28;20296;-61
2023/09/17 05:08:46;;;;;;;7.00;6.32;;;;;;;;;;5008320;28;20228;-62
2023/09/17 05:11:15;;;;;;;7.78;6.40;;;;;;;;;;5003938;28;20209;-61
2023/09/17 05:13:42;;;;;;;8.18;6.28;;;;;;;;;;5003441;28;20228;-61
2023/09/17 05:16:09;;;;;;;6.53;6.03;;;;;;;;;;4993268;28;20217;-62
2023/09/17 05:18:36;;;;;;;6.68;6.03;;;;;;;;;;5004820;28;20196;-63
2023/09/17 05:21:03;;;;;;;7.57;5.97;;;;;;;;;;5005657;28;20201;-61
2023/09/17 05:23:30;;;;;;;6.43;5.88;;;;;;;;;;5008141;28;20201;-61
2023/09/17 05:25:57;;;;;;;7.65;6.40;;;;;;;;;;5005666;28;20227;-61
2023/09/17 05:28:26;;;;;;;6.78;6.28;;;;;;;;;;5008182;28;20240;-61
2023/09/17 05:30:55;;;;;;;9.90;5.45;;;;;;;;;;5005880;28;20577;-61
2023/09/17 05:33:22;;;;;;;6.43;5.93;;;;;;;;;;5005772;28;20328;-62
2023/09/17 05:35:49;;;;;;;6.18;5.57;;;;;;;;;;5004866;28;20201;-61
2023/09/17 05:38:17;;;;;;;6.72;6.13;;;;;;;;;;4996899;28;20213;-61
2023/09/17 05:40:44;;;;;;;6.13;5.63;;;;;;;;;;5002594;28;20656;-61
2023/09/17 05:43:11;;;;;;;6.47;5.88;;;;;;;;;;5004911;28;20205;-61
2023/09/17 05:45:40;;;;;;;10.43;6.55;;;;;;;;;;5006441;28;20216;-60
2023/09/17 05:48:07;;;;;;;7.20;6.00;;;;;;;;;;5006441;28;20260;-61
2023/09/17 05:50:34;;;;;;;10.10;6.85;;;;;;;;;;5007075;28;20205;-61
2023/09/17 05:53:01;;;;;;;6.32;5.82;;;;;;;;;;5004170;28;20627;-61
2023/09/17 05:55:28;;;;;;;6.95;6.43;;;;;;;;;;5007457;28;20213;-62
2023/09/17 05:57:55;;;;;;;6.68;6.07;;;;;;;;;;5001928;28;20294;-62
2023/09/17 06:00:23;;;;;;;7.05;6.18;;;;;;;;;;5004078;28;20212;-61
2023/09/17 06:02:51;;;;;;;6.72;6.05;;;;;;;;;;5001947;28;20202;-61
2023/09/17 06:05:18;;;;;;;6.45;5.60;;;;;;;;;;5007114;28;20395;-60
2023/09/17 06:07:45;;;;;;;6.45;5.85;;;;;;;;;;5005233;28;20232;-60
2023/09/17 06:10:13;;;;;;;6.85;6.30;;;;;;;;;;5005512;28;20682;-59
2023/09/17 06:12:40;;;;;;;7.35;6.75;;;;;;;;;;5005795;28;20212;-59
2023/09/17 06:15:10;;;;;;;7.53;6.47;;;;;;;;;;5001689;28;20201;-60
2023/09/17 06:17:37;;;;;;;8.18;7.40;;;;;;;;;;5003613;28;20208;-60
2023/09/17 06:20:07;;;;;;;7.60;6.45;;;;;;;;;;5001538;28;20300;-59
2023/09/17 06:22:35;;;;;;;7.40;6.70;;;;;;;;;;5005247;28;20209;-61
2023/09/17 06:25:03;;;;;;;7.43;6.43;;;;;;;;;;5005101;28;20213;-60
2023/09/17 06:27:30;;;;;;;6.88;6.38;;;;;;;;;;5007128;28;20224;-60
2023/09/17 06:29:59;;;;;;;8.48;6.50;;;;;;;;;;5006747;28;20228;-60
2023/09/17 06:32:26;;;;;;;7.70;7.03;;;;;;;;;;4991046;28;20214;-60
2023/09/17 06:34:53;;;;;;;7.40;6.70;;;;;;;;;;5006560;28;20234;-61
2023/09/17 06:37:22;;;;;;;11.05;8.23;;;;;;;;;;5005157;28;20710;-61
2023/09/17 06:39:49;;;;;;;7.70;6.93;;;;;;;;;;4995730;28;20201;-61
2023/09/17 06:42:16;;;;;;;7.75;7.00;;;;;;;;;;5001492;28;20303;-59
2023/09/17 06:44:43;;;;;;;9.40;8.50;;;;;;;;;;5000858;28;20208;-61
2023/09/17 06:47:10;;;;;;;10.73;9.20;;;;;;;;;;5001471;28;20213;-60
2023/09/17 06:49:37;;;;;;;9.32;8.43;;;;;;;;;;5006672;28;20205;-60
2023/09/17 06:52:05;;;;;;;12.80;10.13;;;;;;;;;;4991428;28;20214;-60
2023/09/17 06:54:33;;;;;;;13.02;9.73;;;;;;;;;;5004420;28;20205;-61
2023/09/17 06:57:01;;;;;;;11.45;9.10;;;;;;;;;;5004137;28;20272;-61
2023/09/17 06:59:28;;;;;;;10.43;9.43;;;;;;;;;;5004475;28;20216;-61
2023/09/17 07:01:55;;;;;;;12.48;10.32;;;;;;;;;;5002097;28;20726;-61
2023/09/17 07:04:24;;;;;;;10.90;9.48;;;;;;;;;;5004977;28;20205;-61
2023/09/17 07:06:51;;;;;;;10.68;9.63;;;;;;;;;;5007180;28;20233;-61
2023/09/17 07:09:18;;;;;;;10.35;9.23;;;;;;;;;;5005386;28;20229;-62
2023/09/17 07:11:47;;;;;;;14.75;10.43;;;;;;;;;;5003155;28;20228;-62
2023/09/17 07:14:14;;;;;;;11.75;9.75;;;;;;;;;;5003267;28;20216;-60
2023/09/17 07:16:41;;;;;;;11.52;9.48;;;;;;;;;;5007192;28;20578;-62
2023/09/17 07:19:08;;;;;;;12.20;10.13;;;;;;;;;;5005522;28;20200;-61
2023/09/17 07:21:35;;;;;;;12.95;10.32;;;;;;;;;;5006388;28;20213;-62
2023/09/17 07:24:02;;;;;;;10.40;9.40;;;;;;;;;;5004483;28;20212;-64
2023/09/17 07:26:29;;;;;;;10.60;9.60;;;;;;;;;;5005913;28;20212;-63
2023/09/17 07:28:58;;;;;;;11.77;10.55;;;;;;;;;;5006911;28;20243;-64
2023/09/17 07:31:25;;;;;;;11.02;8.77;;;;;;;;;;5006680;28;20213;-61
2023/09/17 07:33:52;;;;;;;9.15;8.25;;;;;;;;;;5006646;28;20209;-67
2023/09/17 07:36:19;;;;;;;15.18;9.70;;;;;;;;;;5005003;28;20676;-65
2023/09/17 07:38:46;;;;;;;10.43;9.35;;;;;;;;;;5004318;28;20208;-65
2023/09/17 07:41:13;;;;;;;14.38;10.07;;;;;;;;;;5001408;28;20212;-65
2023/09/17 07:43:40;;;;;;;13.13;10.57;;;;;;;;;;5000434;28;20216;-64
2023/09/17 07:46:11;;;;;;;15.35;11.05;;;;;;;;;;5003261;28;20455;-65
2023/09/17 07:48:38;;;;;;;11.68;10.40;;;;;;;;;;5006098;28;20236;-61
2023/09/17 07:51:05;;;;;;;11.13;10.02;;;;;;;;;;5002785;28;20213;-61
2023/09/17 07:53:33;;;;;;;9.52;8.63;;;;;;;;;;5006431;28;20204;-58
2023/09/17 07:56:01;;;;;;;10.77;9.23;;;;;;;;;;5004552;28;20780;-61
2023/09/17 07:58:28;;;;;;;9.90;8.77;;;;;;;;;;5004249;28;20267;-59
2023/09/17 08:00:56;;;;;;;10.93;9.27;;;;;;;;;;5006194;28;20205;-61
2023/09/17 08:03:25;;;;;;;9.20;8.30;;;;;;;;;;5003267;28;20206;-59
2023/09/17 08:05:52;;;;;;;10.48;8.35;;;;;;;;;;4992681;28;20684;-59
2023/09/17 08:08:20;;;;;;;8.73;7.75;;;;;;;;;;5001374;28;21077;-59
2023/09/17 08:10:47;;;;;;;8.13;7.13;;;;;;;;;;5000930;28;20220;-60
2023/09/17 08:13:14;;;;;;;9.55;7.53;;;;;;;;;;5000759;28;20209;-59
2023/09/17 08:15:42;;;;;;;7.90;7.10;;;;;;;;;;5006516;28;20753;-59
2023/09/17 08:18:09;;;;;;;8.43;7.65;;;;;;;;;;5004866;28;20244;-59
2023/09/17 08:20:37;;;;;;;8.43;7.30;;;;;;;;;;5006428;28;20205;-59
2023/09/17 08:23:04;;;;;;;8.00;7.28;;;;;;;;;;5003549;28;20212;-60
2023/09/17 08:25:33;;;;;;;7.93;7.13;;;;;;;;;;5004694;28;20255;-60
2023/09/17 08:28:00;;;;;;;7.78;7.07;;;;;;;;;;5004764;28;20240;-61
2023/09/17 08:30:27;;;;;;;6.68;6.00;;;;;;;;;;4991897;28;20206;-63
2023/09/17 08:32:57;;;;;;;7.10;6.43;;;;;;;;;;5006510;28;20213;-60
2023/09/17 08:35:24;;;;;;;7.75;6.22;;;;;;;;;;5005179;28;20205;-60
2023/09/17 08:37:53;;;;;;;6.28;5.68;;;;;;;;;;5009507;28;20209;-60
2023/09/17 08:40:21;;;;;;;6.30;5.82;;;;;;;;;;5004627;28;20699;-59
2023/09/17 08:42:48;;;;;;;5.80;5.35;;;;;;;;;;5004636;28;20220;-59
2023/09/17 08:45:16;;;;;;;6.45;5.78;;;;;;;;;;5005663;28;20213;-60
2023/09/17 08:47:43;;;;;;;9.52;6.05;;;;;;;;;;5009512;28;20429;-60
2023/09/17 08:50:10;;;;;;;5.00;4.70;;;;;;;;;;5008118;28;20212;-60
2023/09/17 08:52:40;;;;;;;4.88;4.57;;;;;;;;;;5009604;28;20707;-60
2023/09/17 08:55:10;;;;;;;5.28;4.82;;;;;;;;;;5006230;28;20229;-60
2023/09/17 08:57:38;;;;;;;7.35;4.78;;;;;;;;;;5007225;28;20241;-62
2023/09/17 09:00:08;;;;;;;5.40;4.07;;;;;;;;;;4985193;28;20216;-64
2023/09/17 09:02:40;;;;;;;6.00;3.90;;;;;;;;;;5000603;28;20735;-63
2023/09/17 09:05:07;;;;;;;4.72;3.45;;;;;;;;;;5004902;28;20216;-64
2023/09/17 09:07:35;;;;;;;3.92;3.60;;;;;;;;;;5003526;28;20671;-72
2023/09/17 09:10:03;;;;;;;6.93;3.97;;;;;;;;;;5000932;28;20239;-71
2023/09/17 09:12:31;;;;;;;3.83;3.53;;;;;;;;;;4985857;28;20225;-72
2023/09/17 09:14:59;;;;;;;4.30;3.05;;;;;;;;;;4997300;28;20205;-72
2023/09/17 09:17:27;;;;;;;3.65;3.45;;;;;;;;;;4995622;28;20209;-70
2023/09/17 09:19:55;;;;;;;3.97;3.72;;;;;;;;;;5007125;28;20551;-70
2023/09/17 09:22:22;;;;;;;3.65;3.47;;;;;;;;;;5001613;28;20297;-70
2023/09/17 09:24:50;;;;;;;7.28;4.13;;;;;;;;;;4994885;28;20232;-71
2023/09/17 09:27:17;;;;;;;8.82;4.80;;;;;;;;;;5006117;28;20643;-71
2023/09/17 09:29:45;;;;;;;6.25;4.47;;;;;;;;;;5007494;28;20225;-71
2023/09/17 09:32:13;;;;;;;5.82;5.32;;;;;;;;;;5007075;28;20220;-72
2023/09/17 09:34:42;;;;;;;5.18;4.78;;;;;;;;;;5006636;28;20220;-71
2023/09/17 09:37:09;;;;;;;5.43;4.93;;;;;;;;;;5004556;28;20235;-70
2023/09/17 09:39:36;;;;;;;5.32;4.93;;;;;;;;;;5007098;28;20951;-71
2023/09/17 09:42:04;;;;;;;5.60;5.00;;;;;;;;;;4994767;28;20209;-71
2023/09/17 09:44:31;;;;;;;4.35;4.00;;;;;;;;;;5006742;28;20201;-72
2023/09/17 09:47:00;;;;;;;4.68;4.25;;;;;;;;;;5003591;28;20209;-72
2023/09/17 09:49:27;;;;;;;4.25;3.88;;;;;;;;;;4991411;28;20220;-72
2023/09/17 09:51:55;;;;;;;3.80;3.42;;;;;;;;;;5005947;28;20601;-72
2023/09/17 09:54:22;;;;;;;3.50;3.28;;;;;;;;;;5006806;28;20220;-72
2023/09/17 09:56:49;;;;;;;4.40;4.07;;;;;;;;;;5007556;28;20244;-72
2023/09/17 09:59:16;;;;;;;3.95;3.75;;;;;;;;;;5001771;28;20209;-71
2023/09/17 10:01:44;;;;;;;5.93;3.58;;;;;;;;;;5007932;28;20205;-72
2023/09/17 10:04:12;;;;;;;3.95;3.65;;;;;;;;;;5006607;28;20221;-72
2023/09/17 10:06:40;;;;;;;4.25;3.90;;;;;;;;;;5007742;28;20335;-71
2023/09/17 10:09:09;;;;;;;3.72;3.33;;;;;;;;;;5004492;28;20239;-71
2023/09/17 10:11:36;;;;;;;3.40;3.10;;;;;;;;;;5004030;28;20635;-72
2023/09/17 10:14:03;;;;;;;4.68;3.40;;;;;;;;;;5002601;28;20221;-71
2023/09/17 10:16:31;;;;;;;3.33;3.13;;;;;;;;;;5004383;28;20209;-71
2023/09/17 10:18:58;;;;;;;3.90;3.58;;;;;;;;;;5004042;28;20197;-72
2023/09/17 10:21:28;;;;;;;5.35;3.92;;;;;;;;;;5001883;28;20213;-72
2023/09/17 10:23:56;;;;;;;3.67;3.47;;;;;;;;;;5005153;28;20628;-71
2023/09/17 10:26:24;;;;;;;3.88;3.67;;;;;;;;;;5007390;28;20220;-72
2023/09/17 10:28:52;;;;;;;3.78;3.50;;;;;;;;;;5007290;28;20703;-73
2023/09/17 10:31:20;;;;;;;4.13;3.85;;;;;;;;;;5005211;28;20622;-72
2023/09/17 10:33:49;;;;;;;3.20;3.10;;;;;;;;;;5007053;28;20585;-72
2023/09/17 10:36:17;;;;;;;6.25;3.92;;;;;;;;;;5005704;28;20231;-73
2023/09/17 10:38:47;;;;;;;3.58;3.30;;;;;;;;;;5006577;28;20220;-72
2023/09/17 10:41:14;;;;;;;4.35;4.05;;;;;;;;;;5005216;28;20671;-73
2023/09/17 10:43:44;;;;;;;4.00;3.70;;;;;;;;;;4998920;28;20197;-72
2023/09/17 10:46:13;;;;;;;4.40;4.00;;;;;;;;;;5000705;28;20216;-72
2023/09/17 10:48:40;;;;;;;21.92;19.67;;;;;;;;;;5000819;28;20229;-73
2023/09/17 10:51:08;;;;;;;5.72;4.45;;;;;;;;;;5001617;28;20224;-72
2023/09/17 10:53:36;;;;;;;3.95;3.65;;;;;;;;;;4984226;28;20208;-72
2023/09/17 10:56:08;;;;;;;4.47;4.18;;;;;;;;;;4994859;28;20865;-69
2023/09/17 10:58:38;;;;;;;4.30;3.90;;;;;;;;;;5004252;28;20236;-60
2023/09/17 11:01:06;;;;;;;3.05;2.80;;;;;;;;;;5005031;28;20213;-63
2023/09/17 11:03:35;;;;;;;3.65;3.30;;;;;;;;;;5006570;28;20663;-64
2023/09/17 11:06:04;;;;;;;3.85;3.58;;;;;;;;;;5003492;28;20759;-62
2023/09/17 11:08:32;;;;;;;3.75;3.28;;;;;;;;;;5003431;28;20209;-62
2023/09/17 11:10:59;;;;;;;4.53;3.33;;;;;;;;;;5001794;28;20235;-63
2023/09/17 11:13:27;;;;;;;5.80;3.20;;;;;;;;;;5003019;28;20667;-62
2023/09/17 11:15:56;;;;;;;3.08;2.88;;;;;;;;;;5003111;28;20259;-62
2023/09/17 11:18:23;;;;;;;4.25;3.80;;;;;;;;;;5000696;28;20205;-61
2023/09/17 11:21:00;;;;;;;4.78;3.25;;;;;;;;;;5001616;28;20220;-62
2023/09/17 11:23:43;;;;;;;3.08;2.80;;;;;;;;;;5005816;28;20205;-63
2023/09/17 11:26:10;;;;;;;7.53;3.42;;;;;;;;;;5005206;28;20205;-63
2023/09/17 11:28:40;;;;;;;4.13;3.58;;;;;;;;;;5004890;28;20208;-61
2023/09/17 11:31:09;;;;;;;3.25;3.05;;;;;;;;;;5000987;28;20207;-63
2023/09/17 11:33:37;;;;;;;5.70;3.92;;;;;;;;;;5001134;28;20201;-62
2023/09/17 11:36:04;;;;;;;5.55;4.70;;;;;;;;;;5001221;28;20204;-62
2023/09/17 11:38:34;;;;;;;2.95;2.72;;;;;;;;;;5006288;28;20236;-62
2023/09/17 11:41:08;;;;;;;4.15;3.25;;;;;;;;;;5004558;28;20208;-62
2023/09/17 11:43:36;;;;;;;3.30;3.10;;;;;;;;;;5006076;28;20209;-62
2023/09/17 11:46:05;;;;;;;4.40;4.10;;;;;;;;;;5004248;28;20209;-61
2023/09/17 11:48:33;;;;;;;3.13;2.95;;;;;;;;;;5006141;28;20641;-61
2023/09/17 11:51:19;;;;;;;4.20;3.80;;;;;;;;;;5003256;28;20217;-62
2023/09/17 11:53:50;;;;;;;4.03;3.33;;;;;;;;;;5006306;28;20295;-62
2023/09/17 11:56:17;;;;;;;3.90;3.45;;;;;;;;;;5003987;28;20240;-62
2023/09/17 11:58:44;;;;;;;2.65;2.65;;;;;;;;;;5006423;28;20233;-62
2023/09/17 12:01:13;;;;;;;3.13;3.00;;;;;;;;;;5001818;28;20679;-64
2023/09/17 12:03:40;;;;;;;3.55;2.95;;;;;;;;;;4998315;28;20216;-63
2023/09/17 12:06:08;;;;;;;3.40;3.10;;;;;;;;;;5000012;28;20312;-64
2023/09/17 12:08:35;;;;;;;3.10;2.90;;;;;;;;;;5000297;28;20205;-63
2023/09/17 12:11:07;;;;;;;3.20;3.00;;;;;;;;;;4996212;28;20233;-63
2023/09/17 12:13:34;;;;;;;3.75;3.10;;;;;;;;;;5005466;28;20279;-63
2023/09/17 12:16:02;;;;;;;3.83;2.92;;;;;;;;;;5006277;28;20291;-62
2023/09/17 12:18:32;;;;;;;3.55;3.05;;;;;;;;;;5010086;28;20291;-62
2023/09/17 12:21:02;;;;;;;3.15;2.55;;;;;;;;;;5008267;28;20212;-62
2023/09/17 12:23:54;;;;;;;4.80;2.80;;;;;;;;;;5010478;28;20215;-63
2023/09/17 12:26:35;;;;;;;2.97;2.67;;;;;;;;;;5009761;28;20205;-62
2023/09/17 12:29:02;;;;;;;5.30;2.85;;;;;;;;;;5007933;28;20244;-63
2023/09/17 12:31:30;;;;;;;5.10;2.67;;;;;;;;;;5009754;28;20216;-63
2023/09/17 12:33:58;;;;;;;3.72;2.72;;;;;;;;;;4997348;28;20229;-63
2023/09/17 12:36:25;;;;;;;5.30;2.88;;;;;;;;;;5002726;28;20642;-63
2023/09/17 12:38:52;;;;;;;3.47;3.00;;;;;;;;;;5009410;28;20198;-63
2023/09/17 12:41:19;;;;;;;4.20;3.10;;;;;;;;;;5006841;28;20317;-62
2023/09/17 12:43:46;;;;;;;3.42;2.67;;;;;;;;;;5005521;28;20209;-63
2023/09/17 12:46:14;;;;;;;3.05;2.75;;;;;;;;;;5003540;28;20228;-62
2023/09/17 12:48:41;;;;;;;4.15;2.40;;;;;;;;;;5003292;28;20260;-62
2023/09/17 12:51:09;;;;;;;3.42;2.95;;;;;;;;;;5009120;28;20239;-61
2023/09/17 12:53:37;;;;;;;2.97;2.88;;;;;;;;;;5009448;28;20331;-61
2023/09/17 12:56:05;;;;;;;6.22;3.00;;;;;;;;;;5007014;28;20229;-62
2023/09/17 12:58:33;;;;;;;3.20;2.90;;;;;;;;;;5008406;28;20272;-62
2023/09/17 13:01:07;;;;;;;2.92;2.83;;;;;;;;;;5006462;28;20198;-62
2023/09/17 13:03:34;;;;;;;3.40;2.85;;;;;;;;;;4999754;28;20209;-62
2023/09/17 13:06:01;;;;;;;2.95;2.72;;;;;;;;;;4987728;28;20214;-63
2023/09/17 13:08:30;;;;;;;4.70;2.58;;;;;;;;;;4995226;28;20667;-63
2023/09/17 13:10:58;;;;;;;3.33;3.03;;;;;;;;;;5008701;28;20306;-63
2023/09/17 13:13:25;;;;;;;4.32;2.67;;;;;;;;;;5003643;28;20209;-63
2023/09/17 13:15:52;;;;;;;3.65;3.00;;;;;;;;;;4996749;28;20224;-63
2023/09/17 13:18:19;;;;;;;4.03;3.08;;;;;;;;;;5006292;28;20216;-63
2023/09/17 13:20:47;;;;;;;4.07;2.70;;;;;;;;;;5005022;28;20197;-62
2023/09/17 13:23:14;;;;;;;6.88;3.17;;;;;;;;;;5002351;28;20209;-63
2023/09/17 13:25:42;;;;;;;3.85;3.42;;;;;;;;;;5004270;28;20212;-62
2023/09/17 13:28:19;;;;;;;2.60;2.40;;;;;;;;;;5003283;28;20213;-62
2023/09/17 13:30:47;;;;;;;3.25;2.90;;;;;;;;;;5002971;28;20236;-62
2023/09/17 13:33:14;;;;;;;4.20;2.65;;;;;;;;;;5003520;28;20227;-62
2023/09/17 13:35:42;;;;;;;3.45;2.95;;;;;;;;;;5008130;28;20201;-62
2023/09/17 13:38:12;;;;;;;4.35;2.90;;;;;;;;;;5008188;28;20227;-62
2023/09/17 13:40:44;;;;;;;3.53;3.00;;;;;;;;;;5007615;28;20202;-62
2023/09/17 13:43:11;;;;;;;6.15;2.97;;;;;;;;;;4990926;28;20413;-62
2023/09/17 13:45:39;;;;;;;3.33;2.90;;;;;;;;;;5008082;28;20204;-62
2023/09/17 13:48:06;;;;;;;4.75;3.42;;;;;;;;;;5006019;28;20216;-62
2023/09/17 13:50:34;;;;;;;2.78;2.60;;;;;;;;;;5007987;28;20597;-61
2023/09/17 13:53:03;;;;;;;3.83;2.70;;;;;;;;;;5005898;28;20208;-62
2023/09/17 13:55:31;;;;;;;5.05;3.05;;;;;;;;;;5006844;28;20668;-62
2023/09/17 13:58:00;;;;;;;8.07;3.20;;;;;;;;;;5007329;28;20244;-62
2023/09/17 14:00:27;;;;;;;6.20;3.28;;;;;;;;;;5007930;28;20212;-61
2023/09/17 14:02:54;;;;;;;4.00;3.60;;;;;;;;;;5007567;28;20212;-62
2023/09/17 14:05:21;;;;;;;9.52;3.08;;;;;;;;;;5002369;28;20205;-61
2023/09/17 14:07:48;;;;;;;5.50;3.35;;;;;;;;;;5002487;28;20216;-61
2023/09/17 14:10:15;;;;;;;3.30;2.90;;;;;;;;;;5002199;28;20224;-61
2023/09/17 14:12:42;;;;;;;4.15;2.53;;;;;;;;;;5002421;28;20204;-61
2023/09/17 14:15:11;;;;;;;3.75;2.90;;;;;;;;;;5007107;28;20209;-61
2023/09/17 14:17:38;;;;;;;3.08;2.88;;;;;;;;;;5007310;28;20237;-62
2023/09/17 14:20:06;;;;;;;6.15;2.90;;;;;;;;;;5004957;28;20213;-66
2023/09/17 14:22:33;;;;;;;3.75;3.03;;;;;;;;;;5007317;28;20212;-66
2023/09/17 14:25:01;;;;;;;7.45;2.78;;;;;;;;;;5005589;28;20202;-66
2023/09/17 14:27:29;;;;;;;4.53;2.92;;;;;;;;;;4989732;28;20742;-66
2023/09/17 14:29:56;;;;;;;4.65;3.03;;;;;;;;;;5005292;28;20237;-66
2023/09/17 14:32:25;;;;;;;4.35;2.63;;;;;;;;;;5005607;28;20228;-66
2023/09/17 14:34:54;;;;;;;3.92;2.50;;;;;;;;;;5005627;28;20559;-66
2023/09/17 14:37:21;;;;;;;3.08;2.60;;;;;;;;;;5005343;28;20216;-66
2023/09/17 14:39:48;;;;;;;2.65;2.40;;;;;;;;;;4998332;28;20209;-66
2023/09/17 14:42:15;;;;;;;5.03;2.50;;;;;;;;;;5001585;28;20219;-66
2023/09/17 14:44:42;;;;;;;6.57;2.97;;;;;;;;;;4996838;28;20292;-67